createdAt,value
2022-12-22T00:01:06.568Z,100096.25
2022-12-22T00:03:53.974Z,100085.78
2022-12-22T00:06:39.444Z,100080.53
2022-12-22T00:09:24.993Z,100083.97
2022-12-22T00:12:10.488Z,100083.03
2022-12-22T00:14:55.830Z,100082.28
2022-12-22T00:17:47.046Z,100080.47
2022-12-22T00:20:37.681Z,100084.03
2022-12-22T00:23:30.853Z,100073.56
2022-12-22T00:26:17.512Z,100061.31
2022-12-22T00:29:02.918Z,100070.09
2022-12-22T00:31:48.619Z,100078.94
2022-12-22T00:34:39.296Z,100080.75
2022-12-22T00:37:24.656Z,100066.78
2022-12-22T00:40:10.043Z,100066.88
2022-12-22T00:42:55.485Z,100083.53
2022-12-22T00:45:41.014Z,100075.63
2022-12-22T00:48:38.351Z,100059.00
2022-12-22T00:51:23.637Z,100059.00
2022-12-22T00:54:09.679Z,100055.50
2022-12-22T00:56:54.936Z,100052.88
2022-12-22T00:59:40.380Z,100054.66
2022-12-22T01:02:28.915Z,100049.38
2022-12-22T01:05:14.371Z,100048.47
2022-12-22T01:07:59.611Z,100057.19
2022-12-22T01:10:45.423Z,100043.22
2022-12-22T01:13:32.817Z,100041.44
2022-12-22T01:16:18.718Z,100043.19
2022-12-22T01:19:04.010Z,100035.28
2022-12-22T01:21:49.970Z,100035.34
2022-12-22T01:24:37.021Z,100017.91
2022-12-22T01:27:23.243Z,100014.38
2022-12-22T01:30:08.783Z,100007.41
2022-12-22T01:32:54.081Z,100009.19
2022-12-22T01:35:44.925Z,100009.16
2022-12-22T01:38:30.584Z,99999.50
2022-12-22T01:41:17.099Z,99999.56
2022-12-22T01:44:02.422Z,99994.34
2022-12-22T01:46:54.860Z,99998.69
2022-12-22T01:49:44.600Z,99994.31
2022-12-22T01:52:32.213Z,99990.84
2022-12-22T01:55:22.405Z,99992.53
2022-12-22T01:58:07.830Z,99993.41
2022-12-22T02:00:53.148Z,99982.16
2022-12-22T02:03:41.233Z,99976.81
2022-12-22T02:06:41.696Z,99976.72
2022-12-22T02:09:34.575Z,99967.16
2022-12-22T02:12:27.440Z,99968.84
2022-12-22T02:15:20.653Z,99958.28
2022-12-22T02:18:16.549Z,99962.66
2022-12-22T02:21:08.537Z,99955.75
2022-12-22T02:23:59.893Z,99948.75
2022-12-22T02:26:57.385Z,99956.63
2022-12-22T02:30:12.550Z,99948.81
2022-12-22T02:33:05.370Z,99942.75
2022-12-22T02:36:20.991Z,99942.59
2022-12-22T02:39:15.825Z,99940.13
2022-12-22T02:42:15.324Z,99932.16
2022-12-22T02:45:10.047Z,99927.69
2022-12-22T02:48:06.828Z,99920.72
2022-12-22T02:51:04.862Z,99921.59
2022-12-22T02:53:50.528Z,99919.91
2022-12-22T02:56:35.793Z,99912.03
2022-12-22T02:59:21.075Z,99916.50
2022-12-22T03:02:06.579Z,99917.38
2022-12-22T03:04:52.030Z,99906.91
2022-12-22T03:07:37.262Z,99899.91
2022-12-22T03:10:24.652Z,99913.03
2022-12-22T03:13:09.963Z,99905.06
2022-12-22T03:15:55.426Z,99904.25
2022-12-22T03:18:40.794Z,99895.56
2022-12-22T03:21:26.038Z,99902.47
2022-12-22T03:24:11.458Z,99896.44
2022-12-22T03:26:39.103Z,99893.75
2022-12-22T03:29:05.740Z,99889.34
2022-12-22T03:31:32.576Z,99893.69
2022-12-22T03:33:59.306Z,99891.13
2022-12-22T03:36:25.896Z,99887.63
2022-12-22T03:38:52.564Z,99891.06
2022-12-22T03:41:37.854Z,99884.13
2022-12-22T03:44:23.133Z,99878.88
2022-12-22T03:46:49.829Z,99878.94
2022-12-22T03:49:16.515Z,99878.97
2022-12-22T03:51:48.905Z,99883.28
2022-12-22T03:54:18.605Z,99876.34
2022-12-22T03:56:45.695Z,99874.59
2022-12-22T03:59:15.743Z,99866.78
2022-12-22T04:01:45.516Z,99870.31
2022-12-22T04:04:14.064Z,99870.03
2022-12-22T04:06:41.328Z,99869.34
2022-12-22T04:09:08.013Z,99863.28
2022-12-22T04:11:53.320Z,99861.50
2022-12-22T04:14:20.758Z,99852.84
2022-12-22T04:16:47.798Z,99852.78
2022-12-22T04:19:14.709Z,99849.16
2022-12-22T04:21:41.406Z,99847.59
2022-12-22T04:24:08.426Z,99845.88
2022-12-22T04:26:35.297Z,99847.66
2022-12-22T04:29:02.057Z,99847.66
2022-12-22T04:31:28.948Z,99848.47
2022-12-22T04:33:55.581Z,99846.75
2022-12-22T04:36:22.258Z,99838.13
2022-12-22T04:38:48.893Z,99843.31
2022-12-22T04:41:15.614Z,99838.16
2022-12-22T04:43:42.244Z,99839.94
2022-12-22T04:46:08.949Z,99843.38
2022-12-22T04:48:35.922Z,99834.56
2022-12-22T04:51:03.385Z,99841.44
2022-12-22T04:53:30.722Z,99831.09
2022-12-22T04:56:03.025Z,99827.66
2022-12-22T04:58:29.924Z,99834.59
2022-12-22T05:00:56.715Z,99823.19
2022-12-22T05:03:23.871Z,99817.09
2022-12-22T05:05:50.648Z,99806.66
2022-12-22T05:08:17.231Z,99801.50
2022-12-22T05:10:43.840Z,99800.63
2022-12-22T05:13:10.520Z,99802.38
2022-12-22T05:15:37.549Z,99799.78
2022-12-22T05:18:04.658Z,99800.59
2022-12-22T05:20:31.348Z,99791.81
2022-12-22T05:22:58.649Z,99780.38
2022-12-22T05:25:28.536Z,99775.19
2022-12-22T05:27:58.174Z,99771.69
2022-12-22T05:30:24.933Z,99766.50
2022-12-22T05:32:51.585Z,99764.78
2022-12-22T05:35:18.212Z,99757.84
2022-12-22T05:37:44.829Z,99753.53
2022-12-22T05:40:12.052Z,99754.44
2022-12-22T05:42:39.423Z,99755.25
2022-12-22T05:45:13.352Z,99756.13
2022-12-22T05:47:39.991Z,99749.16
2022-12-22T05:50:08.128Z,99747.19
2022-12-22T05:52:34.825Z,99748.97
2022-12-22T05:55:01.530Z,99745.56
2022-12-22T05:57:28.217Z,99744.56
2022-12-22T05:59:54.939Z,99739.38
2022-12-22T06:02:21.791Z,99735.88
2022-12-22T06:04:48.705Z,99731.31
2022-12-22T06:07:15.383Z,99740.09
2022-12-22T06:09:42.004Z,99733.19
2022-12-22T06:12:09.063Z,99730.59
2022-12-22T06:14:35.764Z,99737.59
2022-12-22T06:17:02.486Z,99728.75
2022-12-22T06:19:29.162Z,99729.63
2022-12-22T06:21:55.843Z,99726.19
2022-12-22T06:24:22.506Z,99727.81
2022-12-22T06:26:49.122Z,99722.59
2022-12-22T06:29:15.780Z,99724.25
2022-12-22T06:31:42.740Z,99717.13
2022-12-22T06:34:10.407Z,99717.22
2022-12-22T06:36:38.936Z,99712.75
2022-12-22T06:39:06.428Z,99689.94
2022-12-22T06:41:51.855Z,99699.63
2022-12-22T06:44:18.622Z,99688.28
2022-12-22T06:46:45.306Z,99681.19
2022-12-22T06:49:12.137Z,99682.91
2022-12-22T06:51:38.802Z,99687.38
2022-12-22T06:54:05.510Z,99684.66
2022-12-22T06:56:32.228Z,99675.91
2022-12-22T06:58:58.866Z,99675.09
2022-12-22T07:01:25.649Z,99663.63
2022-12-22T07:03:52.473Z,99664.50
2022-12-22T07:06:19.260Z,99669.50
2022-12-22T07:08:47.065Z,99676.53
2022-12-22T07:11:14.848Z,99672.34
2022-12-22T07:13:41.851Z,99674.78
2022-12-22T07:16:10.314Z,99667.91
2022-12-22T07:18:41.458Z,99661.81
2022-12-22T07:21:10.895Z,99657.44
2022-12-22T07:23:37.962Z,99660.84
2022-12-22T07:26:05.976Z,99661.66
2022-12-22T07:28:34.305Z,99660.06
2022-12-22T07:31:01.061Z,99656.41
2022-12-22T07:33:27.897Z,99653.78
2022-12-22T07:36:05.717Z,99656.41
2022-12-22T07:38:36.902Z,99662.41
2022-12-22T07:41:05.550Z,99662.50
2022-12-22T07:43:32.398Z,99664.25
2022-12-22T07:45:59.009Z,99659.09
2022-12-22T07:48:44.417Z,99638.91
2022-12-22T07:51:11.148Z,99638.91
2022-12-22T07:53:39.960Z,99627.50
2022-12-22T07:56:07.014Z,99624.94
2022-12-22T07:58:33.691Z,99629.16
2022-12-22T08:01:01.321Z,99628.25
2022-12-22T08:03:28.203Z,99622.25
2022-12-22T08:05:54.912Z,99629.16
2022-12-22T08:08:21.589Z,99624.75
2022-12-22T08:10:48.182Z,99625.72
2022-12-22T08:13:14.925Z,99621.97
2022-12-22T08:15:41.629Z,99623.00
2022-12-22T08:18:08.311Z,99618.47
2022-12-22T08:20:35.164Z,99615.97
2022-12-22T08:23:01.861Z,99616.81
2022-12-22T08:25:29.510Z,99616.84
2022-12-22T08:27:56.963Z,99611.59
2022-12-22T08:30:23.777Z,99610.63
2022-12-22T08:32:51.160Z,99601.97
2022-12-22T08:35:18.515Z,99604.56
2022-12-22T08:37:46.138Z,99604.56
2022-12-22T08:40:16.280Z,99608.97
2022-12-22T08:42:43.082Z,99607.25
2022-12-22T08:45:11.366Z,99605.41
2022-12-22T08:47:38.150Z,99598.34
2022-12-22T08:50:05.451Z,99608.72
2022-12-22T08:52:32.086Z,99595.63
2022-12-22T08:54:58.718Z,99599.09
2022-12-22T08:57:25.333Z,99592.88
2022-12-22T08:59:51.935Z,99594.53
2022-12-22T09:02:18.679Z,99570.03
2022-12-22T09:04:45.548Z,99584.97
2022-12-22T09:07:12.287Z,99579.66
2022-12-22T09:09:38.881Z,99585.75
2022-12-22T09:12:05.733Z,99579.50
2022-12-22T09:14:32.850Z,99585.56
2022-12-22T09:17:00.010Z,99584.81
2022-12-22T09:19:26.684Z,99583.97
2022-12-22T09:21:53.341Z,99586.59
2022-12-22T09:24:19.982Z,99579.50
2022-12-22T09:26:46.761Z,99577.81
2022-12-22T09:29:15.455Z,99576.84
2022-12-22T09:31:43.119Z,99576.81
2022-12-22T09:34:16.766Z,99571.63
2022-12-22T09:36:44.971Z,99557.50
2022-12-22T09:39:11.724Z,99568.88
2022-12-22T09:41:52.941Z,99563.56
2022-12-22T09:44:22.741Z,99559.06
2022-12-22T09:46:49.998Z,99560.75
2022-12-22T09:49:18.640Z,99563.38
2022-12-22T09:51:48.580Z,99559.72
2022-12-22T09:54:16.209Z,99562.41
2022-12-22T09:56:42.895Z,99560.53
2022-12-22T09:59:17.754Z,99548.16
2022-12-22T10:02:02.319Z,99545.69
2022-12-22T10:04:31.861Z,99548.41
2022-12-22T10:07:13.531Z,99544.09
2022-12-22T10:09:55.498Z,99537.78
2022-12-22T10:12:26.383Z,99546.56
2022-12-22T10:14:54.004Z,99537.78
2022-12-22T10:17:29.522Z,99537.91
2022-12-22T10:20:21.771Z,99535.31
2022-12-22T10:23:05.066Z,99533.47
2022-12-22T10:26:00.544Z,99531.75
2022-12-22T10:28:33.893Z,99528.25
2022-12-22T10:31:19.651Z,99522.06
2022-12-22T10:33:48.775Z,99513.47
2022-12-22T10:36:21.045Z,99513.41
2022-12-22T10:38:58.452Z,99511.53
2022-12-22T10:41:28.014Z,99513.34
2022-12-22T10:43:59.794Z,99517.78
2022-12-22T10:46:49.916Z,99517.66
2022-12-22T10:52:17.080Z,99516.81
2022-12-22T10:54:45.072Z,99514.16
2022-12-22T10:57:14.829Z,99503.66
2022-12-22T10:59:48.748Z,99497.59
2022-12-22T11:02:38.215Z,99499.25
2022-12-22T11:05:08.208Z,99501.88
2022-12-22T11:07:40.268Z,99508.00
2022-12-22T11:10:31.866Z,99499.19
2022-12-22T11:13:02.801Z,99495.63
2022-12-22T11:15:57.839Z,99498.19
2022-12-22T11:18:39.516Z,99499.09
2022-12-22T11:21:24.824Z,99497.38
2022-12-22T11:23:51.444Z,99493.03
2022-12-22T11:26:36.852Z,99486.91
2022-12-22T11:29:32.707Z,99488.72
2022-12-22T11:32:21.595Z,99484.41
2022-12-22T11:35:00.655Z,99488.59
2022-12-22T11:37:31.810Z,99476.50
2022-12-22T11:40:06.580Z,99476.50
2022-12-22T11:43:11.243Z,99476.47
2022-12-22T11:46:32.356Z,99470.34
2022-12-22T11:49:14.667Z,99461.44
2022-12-22T11:52:00.290Z,99466.69
2022-12-22T11:54:45.441Z,99457.88
2022-12-22T11:57:22.860Z,99455.09
2022-12-22T12:00:11.704Z,99452.34
2022-12-22T12:03:06.005Z,99454.00
2022-12-22T12:06:01.093Z,99455.78
2022-12-22T12:08:50.370Z,99447.78
2022-12-22T12:11:27.433Z,99454.75
2022-12-22T12:14:13.605Z,99451.25
2022-12-22T12:16:44.502Z,99448.69
2022-12-22T12:19:46.044Z,99451.25
2022-12-22T12:22:37.688Z,99446.91
2022-12-22T12:25:19.824Z,99441.63
2022-12-22T12:28:08.258Z,99438.09
2022-12-22T12:30:48.550Z,99443.31
2022-12-22T12:33:30.962Z,99438.94
2022-12-22T12:36:20.075Z,99438.88
2022-12-22T12:39:08.870Z,99429.16
2022-12-22T12:42:09.998Z,99416.69
2022-12-22T12:44:37.107Z,99424.47
2022-12-22T12:47:22.036Z,99420.78
2022-12-22T12:49:58.915Z,99425.06
2022-12-22T12:52:40.746Z,99423.09
2022-12-22T12:55:32.638Z,99421.44
2022-12-22T12:58:02.179Z,99422.28
2022-12-22T13:00:31.895Z,99424.06
2022-12-22T13:03:52.973Z,99417.75
2022-12-22T13:06:57.131Z,99425.63
2022-12-22T13:12:34.130Z,99414.31
2022-12-22T13:15:01.891Z,99414.19
2022-12-22T13:17:38.444Z,99421.72
2022-12-22T13:20:06.549Z,99427.34
2022-12-22T13:22:33.394Z,99430.03
2022-12-22T13:25:02.175Z,99432.59
2022-12-22T13:27:28.967Z,99436.28
2022-12-22T13:29:55.622Z,99432.84
2022-12-22T13:32:28.920Z,99446.84
2022-12-22T13:35:30.837Z,99455.63
2022-12-22T13:37:59.020Z,99459.13
2022-12-22T13:40:28.365Z,99456.44
2022-12-22T13:42:58.061Z,99463.63
2022-12-22T13:45:32.073Z,99459.94
2022-12-22T13:48:00.911Z,99470.25
2022-12-22T13:50:41.860Z,99472.16
2022-12-22T13:53:10.004Z,99475.88
2022-12-22T13:55:37.239Z,99478.50
2022-12-22T13:58:24.167Z,99482.75
2022-12-22T14:01:17.200Z,99484.38
2022-12-22T14:04:04.110Z,99486.19
2022-12-22T14:06:36.026Z,99485.44
2022-12-22T14:09:23.239Z,99497.44
2022-12-22T14:11:58.018Z,99496.63
2022-12-22T14:14:27.827Z,99509.09
2022-12-22T14:16:57.684Z,99515.16
2022-12-22T14:19:25.114Z,99511.66
2022-12-22T14:22:03.626Z,99511.72
2022-12-22T14:24:38.020Z,99507.28
2022-12-22T14:27:06.281Z,99510.09
2022-12-22T14:29:32.984Z,99518.88
2022-12-22T14:32:02.041Z,99526.84
2022-12-22T14:35:06.850Z,99514.56
2022-12-22T14:37:40.681Z,99519.78
2022-12-22T14:40:14.929Z,99521.50
2022-12-22T14:42:44.740Z,99526.81
2022-12-22T14:45:15.664Z,99527.81
2022-12-22T14:47:42.337Z,99526.09
2022-12-22T14:50:23.773Z,99526.91
2022-12-22T14:52:53.057Z,99521.69
2022-12-22T14:55:35.273Z,99532.28
2022-12-22T14:58:32.693Z,99527.84
2022-12-22T15:01:25.054Z,99532.25
2022-12-22T15:04:16.804Z,99528.72
2022-12-22T15:06:46.020Z,99527.84
2022-12-22T15:09:15.706Z,99522.50
2022-12-22T15:11:48.264Z,99541.13
2022-12-22T15:14:18.015Z,99536.78
2022-12-22T15:16:45.570Z,99539.41
2022-12-22T15:19:14.495Z,99550.81
2022-12-22T15:21:41.203Z,99554.16
2022-12-22T15:24:16.825Z,99570.81
2022-12-22T15:26:43.930Z,99571.47
2022-12-22T15:29:11.022Z,99577.34
2022-12-22T15:31:38.638Z,99581.94
2022-12-22T15:34:11.739Z,99579.34
2022-12-22T15:36:38.365Z,99587.03
2022-12-22T15:39:04.987Z,99599.19
2022-12-22T15:41:31.587Z,99592.69
2022-12-22T15:43:59.153Z,99600.66
2022-12-22T15:46:26.240Z,99612.22
2022-12-22T15:48:53.108Z,99616.44
2022-12-22T15:51:25.064Z,99614.78
2022-12-22T15:53:52.089Z,99617.56
2022-12-22T15:56:22.542Z,99616.63
2022-12-22T15:58:49.375Z,99620.25
2022-12-22T16:01:16.176Z,99628.91
2022-12-22T16:03:43.078Z,99628.13
2022-12-22T16:06:13.695Z,99630.53
2022-12-22T16:08:43.416Z,99636.78
2022-12-22T16:11:10.617Z,99636.88
2022-12-22T16:13:37.839Z,99644.75
2022-12-22T16:16:05.157Z,99643.03
2022-12-22T16:18:32.973Z,99640.34
2022-12-22T16:21:08.032Z,99644.66
2022-12-22T16:23:35.894Z,99640.59
2022-12-22T16:26:03.705Z,99634.72
2022-12-22T16:28:31.017Z,99643.41
2022-12-22T16:30:57.728Z,99636.47
2022-12-22T16:33:24.661Z,99641.81
2022-12-22T16:35:51.354Z,99647.38
2022-12-22T16:38:19.276Z,99646.66
2022-12-22T16:40:51.483Z,99654.53
2022-12-22T16:46:13.452Z,99669.16
2022-12-22T16:48:43.526Z,99676.34
2022-12-22T16:51:18.216Z,99683.38
2022-12-22T16:53:44.975Z,99691.38
2022-12-22T16:56:18.120Z,99690.44
2022-12-22T16:58:45.852Z,99692.25
2022-12-22T17:01:36.879Z,99697.66
2022-12-22T17:04:11.150Z,99697.66
2022-12-22T17:06:40.458Z,99697.78
2022-12-22T17:09:13.063Z,99713.50
2022-12-22T17:11:42.514Z,99710.25
2022-12-22T17:14:19.436Z,99713.47
2022-12-22T17:16:46.149Z,99714.63
2022-12-22T17:19:12.808Z,99717.25
2022-12-22T17:21:39.582Z,99720.81
2022-12-22T17:24:07.273Z,99715.38
2022-12-22T17:26:34.639Z,99724.13
2022-12-22T17:29:01.630Z,99712.63
2022-12-22T17:31:28.857Z,99714.66
2022-12-22T17:33:56.731Z,99722.66
2022-12-22T17:36:32.362Z,99710.47
2022-12-22T17:39:01.313Z,99719.38
2022-12-22T17:41:28.108Z,99712.50
2022-12-22T17:43:54.802Z,99725.59
2022-12-22T17:46:22.121Z,99729.19
2022-12-22T17:48:49.159Z,99730.16
2022-12-22T17:51:28.273Z,99726.75
2022-12-22T17:53:57.039Z,99730.31
2022-12-22T17:56:25.420Z,99725.19
2022-12-22T17:58:52.191Z,99734.03
2022-12-22T18:01:27.869Z,99736.69
2022-12-22T18:03:55.192Z,99731.56
2022-12-22T18:06:25.714Z,99730.81
2022-12-22T18:08:53.526Z,99736.97
2022-12-22T18:11:20.428Z,99737.13
2022-12-22T18:13:47.119Z,99733.72
2022-12-22T18:16:16.257Z,99725.91
2022-12-22T18:18:43.707Z,99732.13
2022-12-22T18:21:20.143Z,99742.69
2022-12-22T18:23:50.234Z,99742.69
2022-12-22T18:26:21.227Z,99740.19
2022-12-22T18:28:48.769Z,99735.00
2022-12-22T18:31:15.505Z,99747.25
2022-12-22T18:33:42.194Z,99749.09
2022-12-22T18:36:16.608Z,99758.75
2022-12-22T18:38:44.829Z,99754.41
2022-12-22T18:41:17.145Z,99758.84
2022-12-22T18:43:44.182Z,99751.94
2022-12-22T18:46:11.392Z,99751.88
2022-12-22T18:48:38.159Z,99753.63
2022-12-22T18:51:17.296Z,99750.91
2022-12-22T18:53:44.494Z,99757.94
2022-12-22T18:56:14.595Z,99760.53
2022-12-22T18:58:41.961Z,99748.25
2022-12-22T19:01:17.373Z,99751.69
2022-12-22T19:03:45.694Z,99747.19
2022-12-22T19:06:13.718Z,99756.72
2022-12-22T19:08:45.769Z,99761.78
2022-12-22T19:11:13.792Z,99758.28
2022-12-22T19:13:46.590Z,99750.47
2022-12-22T19:16:16.004Z,99736.50
2022-12-22T19:18:42.921Z,99744.41
2022-12-22T19:21:13.271Z,99741.72
2022-12-22T19:23:40.365Z,99751.31
2022-12-22T19:26:09.497Z,99739.88
2022-12-22T19:28:42.399Z,99747.66
2022-12-22T19:31:11.628Z,99753.59
2022-12-22T19:33:41.593Z,99757.88
2022-12-22T19:36:16.518Z,99761.25
2022-12-22T19:38:49.895Z,99764.75
2022-12-22T19:41:30.494Z,99767.38
2022-12-22T19:43:57.265Z,99765.63
2022-12-22T19:46:26.110Z,99761.31
2022-12-22T19:48:52.848Z,99761.34
2022-12-22T19:51:19.682Z,99763.09
2022-12-22T19:53:46.322Z,99754.31
2022-12-22T19:56:21.463Z,99759.63
2022-12-22T19:58:48.310Z,99751.72
2022-12-22T20:01:15.088Z,99751.75
2022-12-22T20:03:41.823Z,99755.25
2022-12-22T20:06:08.967Z,99752.63
2022-12-22T20:08:35.778Z,99760.44
2022-12-22T20:11:02.714Z,99757.81
2022-12-22T20:13:31.834Z,99750.84
2022-12-22T20:15:58.997Z,99757.88
2022-12-22T20:18:28.322Z,99761.38
2022-12-22T20:21:04.544Z,99762.13
2022-12-22T20:23:34.339Z,99764.00
2022-12-22T20:26:04.252Z,99757.00
2022-12-22T20:28:34.453Z,99763.88
2022-12-22T20:31:02.667Z,99751.56
2022-12-22T20:33:29.560Z,99754.16
2022-12-22T20:35:58.169Z,99757.63
2022-12-22T20:38:36.082Z,99754.19
2022-12-22T20:41:05.064Z,99748.88
2022-12-22T20:43:32.636Z,99742.88
2022-12-22T20:46:22.982Z,99745.56
2022-12-22T20:48:53.805Z,99753.34
2022-12-22T20:51:21.518Z,99744.66
2022-12-22T20:53:50.124Z,99751.66
2022-12-22T20:56:26.953Z,99753.34
2022-12-22T20:58:54.704Z,99756.09
2022-12-22T21:01:21.643Z,99756.16
2022-12-22T21:03:48.425Z,99757.06
2022-12-22T21:06:29.277Z,99757.94
2022-12-22T21:08:58.137Z,99756.09
2022-12-22T21:11:25.171Z,99753.47
2022-12-22T21:13:52.688Z,99751.75
2022-12-22T21:16:23.163Z,99747.28
2022-12-22T21:18:50.759Z,99748.19
2022-12-22T21:21:17.371Z,99744.03
2022-12-22T21:23:44.003Z,99758.03
2022-12-22T21:26:19.110Z,99757.16
2022-12-22T21:28:45.988Z,99757.19
2022-12-22T21:31:12.610Z,99757.13
2022-12-22T21:33:39.307Z,99751.88
2022-12-22T21:36:15.554Z,99754.50
2022-12-22T21:38:42.163Z,99749.31
2022-12-22T21:41:08.879Z,99759.72
2022-12-22T21:43:35.544Z,99754.47
2022-12-22T21:46:02.389Z,99747.56
2022-12-22T21:48:29.077Z,99741.47
2022-12-22T21:50:55.759Z,99750.13
2022-12-22T21:53:22.904Z,99747.63
2022-12-22T21:55:52.160Z,99752.88
2022-12-22T21:58:18.777Z,99763.34
2022-12-22T22:00:48.167Z,99761.66
2022-12-22T22:03:15.966Z,99763.41
2022-12-22T22:05:43.152Z,99758.13
2022-12-22T22:08:11.200Z,99745.97
2022-12-22T22:10:40.331Z,99747.72
2022-12-22T22:13:07.083Z,99740.69
2022-12-22T22:16:14.829Z,99751.28
2022-12-22T22:18:43.398Z,99742.59
2022-12-22T22:21:11.041Z,99742.66
2022-12-22T22:23:37.786Z,99740.84
2022-12-22T22:26:05.176Z,99736.50
2022-12-22T22:28:32.471Z,99736.53
2022-12-22T22:30:59.872Z,99740.06
2022-12-22T22:33:26.540Z,99743.59
2022-12-22T22:35:53.992Z,99743.56
2022-12-22T22:38:21.259Z,99742.72
2022-12-22T22:40:49.104Z,99746.22
2022-12-22T22:43:16.082Z,99742.72
2022-12-22T22:45:46.505Z,99740.94
2022-12-22T22:48:19.811Z,99741.81
2022-12-22T22:50:46.463Z,99738.31
2022-12-22T22:53:13.136Z,99743.47
2022-12-22T22:55:39.821Z,99739.97
2022-12-22T22:58:07.494Z,99740.97
2022-12-22T23:00:34.246Z,99735.72
2022-12-22T23:03:01.256Z,99727.06
2022-12-22T23:05:27.996Z,99727.06
2022-12-22T23:07:54.888Z,99728.00
2022-12-22T23:10:21.517Z,99735.78
2022-12-22T23:12:48.136Z,99736.69
2022-12-22T23:15:15.166Z,99725.22
2022-12-22T23:17:42.037Z,99721.88
2022-12-22T23:20:11.570Z,99716.59
2022-12-22T23:22:38.194Z,99712.28
2022-12-22T23:25:05.079Z,99717.59
2022-12-22T23:27:31.734Z,99725.41
2022-12-22T23:29:58.357Z,99720.16
2022-12-22T23:32:25.019Z,99714.97
2022-12-22T23:34:53.297Z,99710.50
2022-12-22T23:37:20.031Z,99713.13
2022-12-22T23:39:49.092Z,99707.06
2022-12-22T23:42:15.748Z,99708.78
2022-12-22T23:44:42.361Z,99702.78
2022-12-22T23:47:09.451Z,99694.84
2022-12-22T23:49:36.314Z,99689.72
2022-12-22T23:52:03.030Z,99687.09
2022-12-22T23:54:30.400Z,99688.84
2022-12-22T23:56:57.590Z,99692.38
2022-12-22T23:59:24.257Z,99688.94
